Time;durP1;ratioP1;P1;durP2;ratioP2;P2;SDS_P1;SDS_P2;PMS_P1;PMS_P2;Temp;Humidity;BMP_temperature;BMP_pressure;BME280_temperature;BME280_humidity;BME280_pressure;Samples;Min_cycle;Max_cycle;Signal;HPM_P1;HPM_P2
2022/09/23 00:00:03;;;;;;;54.80;33.47;;;9.00;99.90;;;;;;5043540;28;20068;-71
2022/09/23 00:02:28;;;;;;;57.13;33.63;;;9.00;99.90;;;;;;5042398;28;20087;-71
2022/09/23 00:04:54;;;;;;;52.25;33.45;;;9.10;99.90;;;;;;5046381;28;20048;-71
2022/09/23 00:07:20;;;;;;;51.55;33.95;;;9.10;99.90;;;;;;5030574;28;20048;-70
2022/09/23 00:09:46;;;;;;;53.10;34.35;;;9.00;99.90;;;;;;5049284;28;20612;-70
2022/09/23 00:12:11;;;;;;;56.15;33.58;;;9.10;99.90;;;;;;5041840;28;20041;-70
2022/09/23 00:14:38;;;;;;;56.90;34.47;;;9.10;99.90;;;;;;5045243;28;20060;-71
2022/09/23 00:17:04;;;;;;;48.90;32.17;;;9.00;99.90;;;;;;5053887;28;20059;-70
2022/09/23 00:19:29;;;;;;;53.28;34.92;;;9.00;99.90;;;;;;5050880;28;20995;-71
2022/09/23 00:21:55;;;;;;;54.17;33.05;;;9.00;99.90;;;;;;5050059;28;20060;-71
2022/09/23 00:24:23;;;;;;;50.08;31.95;;;9.10;99.90;;;;;;5049530;28;20046;-71
2022/09/23 00:26:48;;;;;;;51.78;34.13;;;9.10;99.90;;;;;;5048977;28;20418;-71
2022/09/23 00:29:14;;;;;;;51.20;32.60;;;9.00;99.90;;;;;;5053028;28;20044;-71
2022/09/23 00:31:40;;;;;;;50.42;32.90;;;9.00;99.90;;;;;;5046459;28;20041;-70
2022/09/23 00:34:06;;;;;;;53.60;32.20;;;9.00;99.90;;;;;;5049894;28;20041;-71
2022/09/23 00:36:31;;;;;;;55.13;33.88;;;9.00;99.90;;;;;;5052070;28;20063;-70
2022/09/23 00:38:57;;;;;;;52.63;33.08;;;9.00;99.90;;;;;;5051831;28;20042;-70
2022/09/23 00:41:23;;;;;;;52.25;33.30;;;9.00;99.90;;;;;;5051669;28;20442;-70
2022/09/23 00:43:52;;;;;;;53.80;33.10;;;9.00;99.90;;;;;;5050349;28;20398;-70
2022/09/23 00:46:33;;;;;;;52.15;32.53;;;9.00;99.90;;;;;;5048952;28;20119;-70
2022/09/23 00:49:05;;;;;;;55.08;34.60;;;9.00;99.90;;;;;;5046239;28;20391;-71
2022/09/23 00:51:39;;;;;;;51.70;33.03;;;8.90;99.90;;;;;;5043968;28;20057;-70
2022/09/23 00:54:06;;;;;;;51.85;32.63;;;8.90;99.90;;;;;;5062113;28;20554;-70
2022/09/23 00:56:32;;;;;;;47.53;31.55;;;8.90;99.90;;;;;;5041249;28;20053;-70
2022/09/23 00:58:59;;;;;;;54.33;33.97;;;9.00;99.90;;;;;;5050294;28;20038;-71
2022/09/23 01:01:25;;;;;;;57.45;32.47;;;8.90;99.90;;;;;;5044260;28;20041;-70
2022/09/23 01:03:53;;;;;;;51.92;32.70;;;8.90;99.90;;;;;;5050484;28;20037;-70
2022/09/23 01:06:19;;;;;;;51.03;32.33;;;8.90;99.90;;;;;;5051502;28;20127;-70
2022/09/23 01:08:46;;;;;;;55.70;32.55;;;8.80;99.90;;;;;;5050196;28;20116;-70
2022/09/23 01:11:29;;;;;;;52.28;34.33;;;8.90;99.90;;;;;;5046037;28;20094;-70
2022/09/23 01:14:04;;;;;;;53.50;33.00;;;8.90;99.90;;;;;;5071378;28;20396;-70
2022/09/23 01:16:36;;;;;;;55.78;33.63;;;8.90;99.90;;;;;;5044491;28;20046;-70
2022/09/23 01:19:42;;;;;;;53.60;34.33;;;8.90;99.90;;;;;;5048621;28;20037;-70
2022/09/23 01:22:16;;;;;;;57.97;35.25;;;8.80;99.90;;;;;;5046443;28;20106;-70
2022/09/23 01:25:12;;;;;;;51.20;33.10;;;8.80;99.90;;;;;;5059768;28;20037;-70
2022/09/23 01:27:44;;;;;;;49.85;31.80;;;8.80;99.90;;;;;;5040826;28;20496;-70
2022/09/23 01:30:47;;;;;;;52.30;31.85;;;8.80;99.90;;;;;;5047971;28;20073;-70
2022/09/23 01:33:28;;;;;;;47.75;30.98;;;8.70;99.90;;;;;;5047192;28;20043;-70
2022/09/23 01:36:24;;;;;;;53.70;33.58;;;8.80;99.90;;;;;;5045620;28;20483;-70
2022/09/23 01:39:07;;;;;;;49.97;30.95;;;8.70;99.90;;;;;;5054047;28;20095;-70
2022/09/23 01:41:32;;;;;;;50.90;32.08;;;8.60;99.90;;;;;;5062154;28;20068;-70
2022/09/23 01:44:15;;;;;;;48.55;32.13;;;8.60;99.90;;;;;;5046209;28;20159;-70
2022/09/23 01:46:58;;;;;;;48.58;31.35;;;8.70;99.90;;;;;;5049868;28;20068;-70
2022/09/23 01:49:37;;;;;;;48.30;29.90;;;8.60;99.90;;;;;;5044412;28;20074;-71
2022/09/23 01:52:08;;;;;;;43.97;29.45;;;8.70;99.90;;;;;;5046777;28;20511;-70
2022/09/23 01:54:56;;;;;;;47.08;30.75;;;8.70;99.90;;;;;;5050005;28;20403;-71
2022/09/23 01:57:40;;;;;;;45.47;29.92;;;8.60;99.90;;;;;;5050167;28;20048;-71
2022/09/23 02:00:12;;;;;;;44.70;30.02;;;8.60;99.90;;;;;;5047949;28;20040;-71
2022/09/23 02:02:48;;;;;;;45.50;30.05;;;8.50;99.90;;;;;;5051406;28;20045;-70
2022/09/23 02:05:33;;;;;;;48.35;30.90;;;8.50;99.90;;;;;;5045141;28;20033;-70
2022/09/23 02:08:07;;;;;;;48.88;31.77;;;8.60;99.90;;;;;;5047156;28;20049;-70
2022/09/23 02:10:43;;;;;;;42.95;28.95;;;8.60;99.90;;;;;;5046511;28;20049;-70
2022/09/23 02:13:16;;;;;;;46.88;29.38;;;8.60;99.90;;;;;;5052588;28;20569;-70
2022/09/23 02:15:50;;;;;;;49.88;31.92;;;8.60;99.90;;;;;;5051508;28;20064;-71
2022/09/23 02:18:28;;;;;;;45.25;29.92;;;8.50;99.90;;;;;;5046401;28;20040;-70
2022/09/23 02:21:05;;;;;;;46.95;30.42;;;8.60;99.90;;;;;;5046741;28;20112;-70
2022/09/23 02:23:38;;;;;;;45.28;30.23;;;8.50;99.90;;;;;;5048187;28;20479;-70
2022/09/23 02:26:26;;;;;;;52.78;32.50;;;8.50;99.90;;;;;;5045982;28;20503;-70
2022/09/23 02:28:58;;;;;;;51.72;32.42;;;8.60;99.90;;;;;;5046707;28;20044;-70
2022/09/23 02:31:39;;;;;;;46.13;30.77;;;8.50;99.90;;;;;;5050766;28;20044;-70
2022/09/23 02:34:17;;;;;;;47.55;29.92;;;8.40;99.90;;;;;;5062416;28;20048;-70
2022/09/23 02:36:54;;;;;;;49.75;31.60;;;8.50;99.90;;;;;;5051520;28;20040;-70
2022/09/23 02:39:25;;;;;;;53.42;32.75;;;8.40;99.90;;;;;;5035637;28;20094;-70
2022/09/23 02:41:57;;;;;;;55.45;33.05;;;8.30;99.90;;;;;;5053712;28;20119;-70
2022/09/23 02:44:23;;;;;;;45.42;29.48;;;8.20;99.90;;;;;;5044107;28;20475;-70
2022/09/23 02:46:51;;;;;;;49.80;30.33;;;8.30;99.90;;;;;;5049780;28;20047;-70
2022/09/23 02:49:23;;;;;;;50.03;32.97;;;8.20;99.90;;;;;;5063001;28;20036;-70
2022/09/23 02:51:49;;;;;;;44.33;30.53;;;8.20;99.90;;;;;;5049046;28;20135;-70
2022/09/23 02:54:19;;;;;;;51.25;33.35;;;8.20;99.90;;;;;;5044341;28;20295;-70
2022/09/23 02:56:44;;;;;;;48.63;31.77;;;8.30;99.90;;;;;;5050958;28;20059;-70
2022/09/23 02:59:11;;;;;;;51.03;32.08;;;8.20;99.90;;;;;;5048601;28;20040;-70
2022/09/23 03:02:04;;;;;;;48.25;31.35;;;8.20;99.90;;;;;;5047604;28;20078;-70
2022/09/23 03:04:46;;;;;;;51.40;32.22;;;8.20;99.90;;;;;;5046680;28;20049;-70
2022/09/23 03:07:47;;;;;;;49.67;31.55;;;8.20;99.90;;;;;;5053110;28;20107;-70
2022/09/23 03:10:36;;;;;;;49.10;31.02;;;8.20;99.90;;;;;;5041533;28;20040;-70
2022/09/23 03:13:10;;;;;;;47.20;30.90;;;8.10;99.90;;;;;;5043444;28;20040;-70
2022/09/23 03:15:53;;;;;;;44.17;28.88;;;8.10;99.90;;;;;;5046460;28;20041;-70
2022/09/23 03:18:45;;;;;;;48.25;30.90;;;8.10;99.90;;;;;;5045664;28;20029;-70
2022/09/23 03:21:19;;;;;;;41.80;29.17;;;8.00;99.90;;;;;;5043173;28;20479;-69
2022/09/23 03:23:46;;;;;;;45.40;30.60;;;8.00;99.90;;;;;;5047034;28;20656;-70
2022/09/23 03:26:22;;;;;;;52.03;31.55;;;8.00;99.90;;;;;;5053189;28;20053;-69
2022/09/23 03:28:49;;;;;;;52.38;33.33;;;8.00;99.90;;;;;;5044154;28;20045;-69
2022/09/23 03:31:16;;;;;;;47.80;31.50;;;7.90;99.90;;;;;;5046178;28;20049;-69
2022/09/23 03:33:55;;;;;;;48.13;32.00;;;7.90;99.90;;;;;;5048943;28;20044;-70
2022/09/23 03:39:19;;;;;;;47.67;31.00;;;7.90;99.90;;;;;;5044358;28;20067;-69
2022/09/23 03:41:49;;;;;;;51.85;33.17;;;7.90;99.90;;;;;;5042161;28;20048;-70
2022/09/23 03:44:16;;;;;;;47.30;30.40;;;7.90;99.90;;;;;;5055251;28;20044;-69
2022/09/23 03:46:48;;;;;;;49.78;31.33;;;7.80;99.90;;;;;;5048401;28;20042;-70
2022/09/23 03:49:23;;;;;;;46.13;30.95;;;7.80;99.90;;;;;;5063378;28;20059;-69
2022/09/23 03:51:49;;;;;;;49.33;31.48;;;7.90;99.90;;;;;;5048460;28;20047;-69
2022/09/23 03:54:15;;;;;;;47.50;31.35;;;7.80;99.90;;;;;;5053618;28;20398;-69
2022/09/23 03:56:40;;;;;;;44.03;29.73;;;7.90;99.90;;;;;;5050988;28;20045;-69
2022/09/23 03:59:06;;;;;;;51.95;33.10;;;7.90;99.90;;;;;;5047014;28;20479;-69
2022/09/23 04:01:32;;;;;;;45.28;29.30;;;7.80;99.90;;;;;;5052740;28;20480;-69
2022/09/23 04:03:58;;;;;;;51.03;31.70;;;7.80;99.90;;;;;;5047669;28;20044;-69
2022/09/23 04:06:24;;;;;;;48.45;31.23;;;7.70;99.90;;;;;;5048991;28;20123;-69
2022/09/23 04:08:50;;;;;;;49.38;30.38;;;7.70;99.90;;;;;;5057949;28;20135;-69
2022/09/23 04:11:15;;;;;;;49.83;30.40;;;7.80;99.90;;;;;;5065113;28;20048;-69
2022/09/23 04:13:41;;;;;;;48.25;30.80;;;7.80;99.90;;;;;;5053695;28;20056;-69
2022/09/23 04:16:06;;;;;;;46.55;30.15;;;7.70;99.90;;;;;;5058794;28;20079;-69
2022/09/23 04:18:32;;;;;;;49.00;30.42;;;7.70;99.90;;;;;;5060541;28;20186;-69
2022/09/23 04:20:58;;;;;;;47.55;30.38;;;7.80;99.90;;;;;;5057771;28;20046;-69
2022/09/23 04:23:25;;;;;;;46.80;30.88;;;7.70;99.90;;;;;;5057408;28;20043;-69
2022/09/23 04:25:52;;;;;;;52.08;31.50;;;7.80;99.90;;;;;;5058214;28;20493;-70
2022/09/23 04:28:18;;;;;;;49.83;32.20;;;7.80;99.90;;;;;;5054411;28;20118;-70
2022/09/23 04:30:44;;;;;;;52.58;31.40;;;7.90;99.90;;;;;;5057188;28;20600;-69
2022/09/23 04:33:12;;;;;;;50.28;31.42;;;7.80;99.90;;;;;;5054520;28;20047;-70
2022/09/23 04:35:38;;;;;;;50.28;31.17;;;7.80;99.90;;;;;;5063175;28;20044;-70
2022/09/23 04:38:05;;;;;;;46.45;30.10;;;7.90;99.90;;;;;;5058687;28;20053;-69
2022/09/23 04:40:31;;;;;;;45.42;29.48;;;7.80;99.90;;;;;;5060532;28;20113;-69
2022/09/23 04:42:57;;;;;;;48.08;31.38;;;7.70;99.90;;;;;;5061080;28;20048;-69
2022/09/23 04:45:23;;;;;;;49.65;32.22;;;7.70;99.90;;;;;;5051616;28;20049;-69
2022/09/23 04:47:48;;;;;;;49.13;30.08;;;7.70;99.90;;;;;;5058115;28;20323;-69
2022/09/23 04:50:14;;;;;;;47.95;30.52;;;7.80;99.90;;;;;;5058008;28;20055;-69
2022/09/23 04:52:40;;;;;;;46.03;30.92;;;7.80;99.90;;;;;;5058475;28;20440;-69
2022/09/23 04:55:06;;;;;;;47.58;31.33;;;7.70;99.90;;;;;;5052546;28;20116;-69
2022/09/23 04:57:33;;;;;;;42.85;28.83;;;7.80;99.90;;;;;;5062953;28;20378;-69
2022/09/23 04:59:59;;;;;;;44.67;28.70;;;7.70;99.90;;;;;;5057600;28;20475;-69
2022/09/23 05:02:25;;;;;;;45.70;30.95;;;7.60;99.90;;;;;;5047180;28;20178;-69
2022/09/23 05:04:50;;;;;;;44.00;29.27;;;7.70;99.90;;;;;;5059519;28;20455;-69
2022/09/23 05:07:17;;;;;;;40.97;27.85;;;7.60;99.90;;;;;;5059279;28;20479;-69
2022/09/23 05:09:44;;;;;;;43.97;27.27;;;7.70;99.90;;;;;;5059965;28;20040;-69
2022/09/23 05:12:09;;;;;;;47.00;29.10;;;7.70;99.90;;;;;;5060683;28;20048;-69
2022/09/23 05:14:35;;;;;;;42.63;27.75;;;7.60;99.90;;;;;;5054511;28;20055;-69
2022/09/23 05:17:00;;;;;;;44.67;29.65;;;7.60;99.90;;;;;;5048143;28;20033;-69
2022/09/23 05:19:26;;;;;;;40.63;27.10;;;7.60;99.90;;;;;;5050524;28;20422;-69
2022/09/23 05:21:51;;;;;;;48.63;28.35;;;7.60;99.90;;;;;;5050806;28;20075;-69
2022/09/23 05:24:18;;;;;;;45.55;28.80;;;7.60;99.90;;;;;;5045613;28;20048;-69
2022/09/23 05:26:43;;;;;;;46.53;28.48;;;7.70;99.90;;;;;;5066791;28;20040;-69
2022/09/23 05:29:09;;;;;;;45.58;28.98;;;7.70;99.90;;;;;;5060266;28;20091;-69
2022/09/23 05:31:35;;;;;;;44.72;28.60;;;7.70;99.90;;;;;;5048054;28;20045;-69
2022/09/23 05:34:03;;;;;;;43.55;28.55;;;7.70;99.90;;;;;;5040914;28;20364;-68
2022/09/23 05:36:31;;;;;;;51.42;30.05;;;7.60;99.90;;;;;;5049965;28;20059;-69
2022/09/23 05:38:57;;;;;;;41.05;27.83;;;7.60;99.90;;;;;;5057078;28;20037;-69
2022/09/23 05:41:24;;;;;;;43.63;29.38;;;7.70;99.90;;;;;;5055126;28;20044;-69
2022/09/23 05:43:51;;;;;;;42.08;27.90;;;7.60;99.90;;;;;;5058726;28;20044;-69
2022/09/23 05:46:22;;;;;;;42.75;29.33;;;7.60;99.90;;;;;;5061094;28;20415;-69
2022/09/23 05:48:48;;;;;;;44.88;29.27;;;7.70;99.90;;;;;;5067966;28;20131;-69
2022/09/23 05:51:17;;;;;;;47.42;30.30;;;7.60;99.90;;;;;;5032890;28;20135;-69
2022/09/23 05:53:44;;;;;;;49.95;31.30;;;7.70;99.90;;;;;;5041513;28;20033;-69
2022/09/23 05:56:11;;;;;;;45.78;30.17;;;7.70;99.90;;;;;;5051796;28;20049;-69
2022/09/23 05:58:37;;;;;;;47.53;29.15;;;7.80;99.90;;;;;;5043803;28;20033;-69
2022/09/23 06:01:34;;;;;;;45.75;30.45;;;7.70;99.90;;;;;;5046086;28;20447;-69
2022/09/23 06:04:00;;;;;;;41.05;28.00;;;7.90;99.90;;;;;;5044553;28;20076;-70
2022/09/23 06:06:27;;;;;;;46.03;29.20;;;7.90;99.90;;;;;;5042218;28;20071;-70
2022/09/23 06:08:53;;;;;;;43.28;28.42;;;8.00;99.90;;;;;;5044021;28;20040;-70
2022/09/23 06:11:20;;;;;;;47.95;28.95;;;8.00;99.90;;;;;;5047542;28;20047;-70
2022/09/23 06:13:48;;;;;;;39.95;27.05;;;8.10;99.90;;;;;;5046522;28;20043;-70
2022/09/23 06:16:15;;;;;;;43.45;27.10;;;8.10;99.90;;;;;;5047737;28;20037;-70
2022/09/23 06:18:42;;;;;;;45.58;29.42;;;8.30;99.90;;;;;;5048573;28;20482;-70
2022/09/23 06:21:12;;;;;;;40.67;27.52;;;8.30;99.90;;;;;;5046151;28;20664;-70
2022/09/23 06:23:38;;;;;;;40.88;27.33;;;8.50;99.90;;;;;;5048082;28;20080;-70
2022/09/23 06:26:07;;;;;;;41.35;27.45;;;8.50;99.90;;;;;;5069919;28;20037;-70
2022/09/23 06:28:35;;;;;;;43.13;28.67;;;8.60;99.90;;;;;;5055778;28;20068;-70
2022/09/23 06:31:02;;;;;;;41.88;28.48;;;8.70;99.90;;;;;;5057911;28;20044;-71
2022/09/23 06:33:29;;;;;;;41.33;28.08;;;8.80;99.90;;;;;;5058856;28;20040;-71
2022/09/23 06:36:03;;;;;;;41.40;28.63;;;8.70;99.90;;;;;;5057823;28;20115;-70
2022/09/23 06:38:30;;;;;;;40.50;27.25;;;8.90;99.90;;;;;;5069799;28;20136;-70
2022/09/23 06:40:57;;;;;;;44.00;28.05;;;8.90;99.90;;;;;;5056156;28;20147;-70
2022/09/23 06:43:24;;;;;;;42.75;28.75;;;9.00;99.90;;;;;;5053698;28;20090;-70
2022/09/23 06:45:57;;;;;;;42.97;26.13;;;8.90;99.90;;;;;;5057622;28;20033;-70
2022/09/23 06:48:23;;;;;;;41.83;27.48;;;9.00;99.90;;;;;;5052116;28;20090;-70
2022/09/23 06:50:50;;;;;;;39.90;26.05;;;9.00;99.90;;;;;;5053551;28;20068;-71
2022/09/23 06:53:16;;;;;;;41.28;27.33;;;9.20;99.90;;;;;;5052685;28;20661;-71
2022/09/23 06:55:43;;;;;;;41.70;27.27;;;9.20;99.90;;;;;;5052689;28;20376;-70
2022/09/23 06:58:09;;;;;;;38.70;26.90;;;9.20;99.90;;;;;;5049860;28;20131;-70
2022/09/23 07:00:35;;;;;;;38.17;26.80;;;9.30;99.90;;;;;;5053609;28;20051;-70
2022/09/23 07:03:08;;;;;;;37.95;25.90;;;9.30;99.90;;;;;;5072761;28;20037;-70
2022/09/23 07:05:37;;;;;;;43.60;26.25;;;9.30;99.90;;;;;;5061063;28;20101;-70
2022/09/23 07:08:07;;;;;;;40.17;26.17;;;9.40;99.90;;;;;;5057421;28;20064;-70
2022/09/23 07:10:33;;;;;;;37.97;27.27;;;9.40;99.90;;;;;;5053469;28;20098;-70
2022/09/23 07:13:01;;;;;;;38.88;24.95;;;9.60;99.90;;;;;;5049428;28;20462;-70
2022/09/23 07:15:26;;;;;;;38.03;25.85;;;9.60;99.90;;;;;;5055173;28;20050;-70
2022/09/23 07:17:52;;;;;;;36.22;25.67;;;9.70;99.90;;;;;;5053281;28;20049;-70
2022/09/23 07:20:17;;;;;;;35.67;26.23;;;9.70;99.90;;;;;;5048932;28;20067;-70
2022/09/23 07:22:48;;;;;;;34.05;24.90;;;9.70;99.90;;;;;;5054719;28;20476;-71
2022/09/23 07:25:14;;;;;;;36.25;25.27;;;9.90;99.90;;;;;;5053057;28;20064;-70
2022/09/23 07:27:40;;;;;;;36.83;25.00;;;9.90;99.90;;;;;;5054822;28;20040;-70
2022/09/23 07:30:06;;;;;;;36.45;24.73;;;10.00;99.90;;;;;;5054232;28;20036;-70
2022/09/23 07:32:32;;;;;;;34.58;25.02;;;10.10;99.90;;;;;;5056532;28;20032;-71
2022/09/23 07:34:58;;;;;;;35.67;24.50;;;10.10;99.90;;;;;;5055174;28;20041;-70
2022/09/23 07:37:23;;;;;;;38.20;24.13;;;10.20;99.90;;;;;;5058354;28;20150;-70
2022/09/23 07:39:49;;;;;;;35.42;24.00;;;10.20;99.90;;;;;;5058942;28;20496;-71
2022/09/23 07:42:15;;;;;;;35.75;23.75;;;10.30;99.90;;;;;;5055242;28;20054;-71
2022/09/23 07:44:44;;;;;;;39.22;23.25;;;10.40;99.90;;;;;;5055480;28;20515;-71
2022/09/23 07:47:10;;;;;;;36.70;23.90;;;10.40;99.90;;;;;;5059272;28;20423;-70
2022/09/23 07:49:35;;;;;;;40.22;24.55;;;10.60;99.90;;;;;;5058530;28;20032;-71
2022/09/23 07:52:02;;;;;;;33.47;22.50;;;10.60;99.90;;;;;;5050145;28;20045;-72
2022/09/23 07:54:28;;;;;;;32.88;23.83;;;10.60;99.90;;;;;;5049600;28;20391;-71
2022/09/23 07:56:54;;;;;;;35.03;22.65;;;10.70;99.90;;;;;;5050732;28;20074;-71
2022/09/23 07:59:20;;;;;;;34.40;23.02;;;10.80;99.90;;;;;;5053204;28;20471;-71
2022/09/23 08:01:51;;;;;;;32.40;22.63;;;10.70;99.90;;;;;;5054198;28;20076;-71
2022/09/23 08:04:29;;;;;;;30.92;21.90;;;10.90;99.90;;;;;;5052491;28;20045;-71
2022/09/23 08:06:57;;;;;;;31.05;23.25;;;10.90;99.90;;;;;;5065686;28;20040;-71
2022/09/23 08:09:26;;;;;;;31.42;22.17;;;10.90;99.90;;;;;;5057629;28;20060;-71
2022/09/23 08:11:52;;;;;;;30.95;22.85;;;11.10;99.90;;;;;;5067628;28;20391;-71
2022/09/23 08:14:19;;;;;;;29.30;21.60;;;11.10;99.90;;;;;;5048323;28;20041;-71
2022/09/23 08:16:46;;;;;;;29.52;21.52;;;11.30;99.90;;;;;;5047877;28;20128;-71
2022/09/23 08:19:13;;;;;;;29.77;22.33;;;11.30;99.90;;;;;;5044788;28;20136;-71
2022/09/23 08:21:39;;;;;;;31.45;21.77;;;11.40;99.90;;;;;;5047813;28;20037;-71
2022/09/23 08:24:06;;;;;;;29.27;21.67;;;11.50;99.90;;;;;;5048747;28;20517;-71
2022/09/23 08:26:33;;;;;;;30.95;21.85;;;11.50;99.90;;;;;;5048628;28;20114;-72
2022/09/23 08:28:59;;;;;;;33.88;21.25;;;11.70;99.90;;;;;;5048658;28;20098;-71
2022/09/23 08:31:25;;;;;;;30.58;21.75;;;11.80;99.90;;;;;;5045563;28;20041;-72
2022/09/23 08:33:55;;;;;;;30.23;20.80;;;11.80;99.90;;;;;;5046414;28;20550;-71
2022/09/23 08:36:21;;;;;;;30.23;21.60;;;11.80;99.90;;;;;;5048951;28;20464;-71
2022/09/23 08:38:47;;;;;;;27.88;20.80;;;11.90;99.90;;;;;;5051336;28;20516;-71
2022/09/23 08:41:18;;;;;;;25.92;20.20;;;12.00;99.90;;;;;;5047357;28;20072;-71
2022/09/23 08:43:50;;;;;;;24.83;19.90;;;12.20;99.90;;;;;;5034665;28;20488;-71
2022/09/23 08:46:24;;;;;;;26.13;20.13;;;12.20;99.90;;;;;;5043168;28;20041;-71
2022/09/23 08:48:49;;;;;;;26.92;19.95;;;12.40;99.90;;;;;;5051934;28;20052;-71
2022/09/23 08:51:22;;;;;;;28.50;20.13;;;12.50;99.90;;;;;;5047786;28;20063;-71
2022/09/23 08:53:48;;;;;;;30.67;20.30;;;12.50;99.90;;;;;;5068382;28;20040;-71
2022/09/23 08:56:18;;;;;;;29.83;20.50;;;12.70;99.90;;;;;;5052062;28;20040;-71
2022/09/23 08:59:06;;;;;;;26.70;19.95;;;12.80;99.90;;;;;;5051646;28;20051;-71
2022/09/23 09:01:51;;;;;;;29.63;19.88;;;12.90;99.90;;;;;;5049313;28;20112;-71
2022/09/23 09:04:26;;;;;;;26.95;19.80;;;13.00;99.90;;;;;;5051942;28;20053;-71
2022/09/23 09:07:08;;;;;;;25.38;19.10;;;13.20;99.90;;;;;;5050091;28;20043;-71
2022/09/23 09:09:44;;;;;;;29.55;19.45;;;13.20;99.90;;;;;;5051261;28;20053;-71
2022/09/23 09:12:23;;;;;;;24.73;18.60;;;13.40;99.90;;;;;;5050903;28;20048;-71
2022/09/23 09:15:09;;;;;;;27.27;18.02;;;13.50;99.90;;;;;;5051315;28;20068;-70
2022/09/23 09:17:54;;;;;;;26.00;18.60;;;13.60;99.90;;;;;;5047769;28;20064;-69
2022/09/23 09:20:27;;;;;;;25.10;17.50;;;13.90;99.90;;;;;;5055807;28;20057;-70
2022/09/23 09:22:59;;;;;;;21.58;17.38;;;14.00;99.90;;;;;;5050583;28;20037;-70
2022/09/23 09:25:41;;;;;;;25.02;17.95;;;14.20;99.90;;;;;;5051812;28;20120;-70
2022/09/23 09:28:15;;;;;;;26.50;16.67;;;14.30;99.90;;;;;;5033630;28;20040;-68
2022/09/23 09:30:43;;;;;;;23.73;16.40;;;14.40;99.90;;;;;;5051437;28;20069;-70
2022/09/23 09:33:17;;;;;;;21.42;15.77;;;14.50;99.90;;;;;;5047419;28;20089;-71
2022/09/23 09:36:22;;;;;;;21.63;16.48;;;14.50;99.90;;;;;;5048656;28;20048;-70
2022/09/23 09:38:50;;;;;;;22.92;16.52;;;14.60;99.90;;;;;;5061487;28;20072;-69
2022/09/23 09:41:17;;;;;;;21.83;16.15;;;14.60;99.90;;;;;;5052112;28;20120;-71
2022/09/23 09:43:47;;;;;;;21.63;16.15;;;14.60;99.90;;;;;;5053744;28;20051;-70
2022/09/23 09:46:32;;;;;;;22.33;16.45;;;14.70;99.90;;;;;;5046145;28;20064;-70
2022/09/23 09:49:04;;;;;;;23.83;16.63;;;14.70;99.90;;;;;;5047172;28;20041;-70
2022/09/23 09:51:30;;;;;;;24.20;16.20;;;14.70;99.90;;;;;;5050976;28;20123;-71
2022/09/23 09:54:17;;;;;;;23.85;17.55;;;14.70;99.90;;;;;;5053458;28;20041;-70
2022/09/23 09:56:43;;;;;;;20.95;15.80;;;14.70;99.90;;;;;;5055419;28;20036;-71
2022/09/23 09:59:21;;;;;;;22.75;16.63;;;14.70;99.90;;;;;;5045271;28;21003;-70
2022/09/23 10:01:47;;;;;;;21.00;16.20;;;14.70;99.90;;;;;;5044413;28;20033;-71
2022/09/23 10:04:32;;;;;;;24.70;16.65;;;14.70;99.90;;;;;;5046929;28;20045;-71
2022/09/23 10:07:11;;;;;;;22.98;16.38;;;14.70;99.90;;;;;;5049211;28;20495;-70
2022/09/23 10:09:38;;;;;;;23.27;15.45;;;14.70;99.90;;;;;;5052558;28;20044;-71
2022/09/23 10:12:17;;;;;;;23.85;16.08;;;14.70;99.90;;;;;;5044841;28;20070;-70
2022/09/23 10:14:44;;;;;;;24.83;16.60;;;14.80;99.90;;;;;;5051338;28;20041;-70
2022/09/23 10:17:27;;;;;;;24.55;16.73;;;14.80;99.90;;;;;;5055767;28;20063;-70
2022/09/23 10:19:59;;;;;;;23.05;16.08;;;14.80;99.90;;;;;;5053216;28;20033;-70
2022/09/23 10:22:41;;;;;;;24.95;16.48;;;14.80;99.90;;;;;;5052569;28;20163;-70
2022/09/23 10:25:09;;;;;;;21.98;15.70;;;14.80;99.90;;;;;;5056296;28;20083;-70
2022/09/23 10:27:35;;;;;;;23.95;15.80;;;14.80;99.90;;;;;;5070324;28;20048;-69
2022/09/23 10:30:17;;;;;;;24.05;15.88;;;14.90;99.90;;;;;;5052108;28;20045;-70
2022/09/23 10:32:44;;;;;;;25.95;16.15;;;14.90;99.90;;;;;;5051958;28;20514;-72
2022/09/23 10:35:10;;;;;;;22.83;15.10;;;15.00;99.90;;;;;;5049998;28;20049;-74
2022/09/23 10:37:54;;;;;;;23.33;15.90;;;15.10;99.90;;;;;;5044142;28;20131;-71
2022/09/23 10:46:38;;;;;;;21.80;15.10;;;15.20;99.90;;;;;;5058492;28;20555;-69
2022/09/23 10:49:19;;;;;;;23.42;15.48;;;15.20;99.90;;;;;;5070885;28;20501;-70
2022/09/23 10:52:00;;;;;;;21.50;15.82;;;15.20;99.90;;;;;;5057806;28;20041;-69
2022/09/23 10:54:49;;;;;;;24.77;15.45;;;15.30;99.90;;;;;;5048222;28;20047;-69
2022/09/23 10:57:42;;;;;;;21.55;15.15;;;15.30;99.90;;;;;;5050289;28;20103;-68
2022/09/23 11:00:45;;;;;;;21.52;15.25;;;15.30;99.90;;;;;;5050074;28;20037;-68
2022/09/23 11:03:44;;;;;;;22.60;15.30;;;15.30;99.90;;;;;;5041156;28;20052;-69
2022/09/23 11:06:19;;;;;;;22.67;15.15;;;15.30;99.90;;;;;;5066937;28;20114;-69
2022/09/23 11:08:56;;;;;;;21.15;15.07;;;15.30;99.90;;;;;;5045972;28;20048;-69
2022/09/23 11:11:32;;;;;;;23.17;14.32;;;15.30;99.90;;;;;;5029540;28;20120;-69
2022/09/23 11:14:20;;;;;;;21.00;14.32;;;15.40;99.90;;;;;;5031426;28;20049;-69
2022/09/23 11:17:12;;;;;;;22.00;15.43;;;15.40;99.90;;;;;;5047881;28;20546;-69
2022/09/23 11:19:49;;;;;;;20.98;14.85;;;15.40;99.90;;;;;;5046729;28;20080;-69
2022/09/23 11:22:36;;;;;;;24.05;15.48;;;15.40;99.90;;;;;;5059165;28;20041;-69
2022/09/23 11:25:22;;;;;;;23.48;15.20;;;15.50;99.90;;;;;;5030702;28;20045;-69
2022/09/23 11:27:59;;;;;;;21.20;14.70;;;15.50;99.90;;;;;;5045620;28;20107;-69
2022/09/23 11:30:35;;;;;;;21.63;15.00;;;15.50;99.90;;;;;;5036515;28;20480;-69
2022/09/23 11:33:17;;;;;;;25.42;15.00;;;15.60;99.90;;;;;;5031644;28;20396;-69
2022/09/23 11:35:44;;;;;;;;;;;15.60;99.90;;;;;;5046125;28;20055;-69
2022/09/23 11:38:25;;;;;;;23.55;15.55;;;15.60;99.90;;;;;;5047318;28;20038;-69
2022/09/23 11:41:20;;;;;;;22.00;15.02;;;15.60;99.90;;;;;;5032762;28;20052;-68
2022/09/23 11:43:51;;;;;;;18.42;14.77;;;15.70;99.90;;;;;;5045802;28;20064;-69
2022/09/23 11:46:39;;;;;;;23.73;15.15;;;15.60;99.90;;;;;;5048610;28;20384;-69
2022/09/23 11:49:31;;;;;;;21.55;15.10;;;15.60;99.90;;;;;;5038359;28;20076;-70
2022/09/23 11:52:26;;;;;;;24.27;15.45;;;15.60;99.90;;;;;;5049399;28;20044;-70
2022/09/23 11:54:59;;;;;;;20.00;15.38;;;15.60;99.90;;;;;;5064815;28;20116;-70
2022/09/23 11:57:41;;;;;;;21.50;15.70;;;15.60;99.90;;;;;;5057431;28;20126;-70
2022/09/23 12:00:15;;;;;;;20.38;14.70;;;15.60;99.90;;;;;;5066542;28;20083;-70
2022/09/23 12:02:54;;;;;;;21.10;14.98;;;15.60;99.90;;;;;;5047278;28;20041;-70
2022/09/23 12:05:24;;;;;;;20.95;15.02;;;15.60;99.90;;;;;;5049028;28;20128;-70
2022/09/23 12:08:10;;;;;;;21.10;14.35;;;15.60;99.90;;;;;;5066004;28;20184;-69
2022/09/23 12:10:54;;;;;;;19.83;15.15;;;15.60;99.90;;;;;;5050633;28;20456;-69
2022/09/23 12:13:33;;;;;;;22.75;15.00;;;15.60;99.90;;;;;;5044434;28;20053;-69
2022/09/23 12:16:35;;;;;;;24.75;15.82;;;15.60;99.90;;;;;;5052854;28;20511;-70
2022/09/23 12:19:20;;;;;;;25.25;15.75;;;15.50;99.90;;;;;;5045187;28;20038;-70
2022/09/23 12:22:01;;;;;;;22.15;14.35;;;15.50;99.90;;;;;;5069018;28;20380;-70
2022/09/23 12:24:50;;;;;;;21.88;14.85;;;15.50;99.90;;;;;;5053058;28;20041;-70
2022/09/23 12:27:24;;;;;;;20.80;14.63;;;15.50;99.90;;;;;;5033604;28;20088;-70
2022/09/23 12:29:57;;;;;;;22.05;14.05;;;15.50;99.90;;;;;;5047711;28;20042;-70
2022/09/23 12:32:24;;;;;;;20.38;14.80;;;15.40;99.90;;;;;;5069614;28;20553;-70
2022/09/23 12:34:51;;;;;;;22.40;14.48;;;15.50;99.90;;;;;;5019258;28;20068;-70
2022/09/23 12:37:33;;;;;;;21.63;14.30;;;15.40;99.90;;;;;;5043531;28;20037;-70
2022/09/23 12:40:06;;;;;;;25.27;14.48;;;15.40;99.90;;;;;;5069058;28;20037;-70
2022/09/23 12:42:31;;;;;;;21.60;14.38;;;15.30;99.90;;;;;;5053193;28;20036;-70
2022/09/23 12:45:31;;;;;;;20.63;14.13;;;15.30;99.90;;;;;;5046933;28;20420;-70
2022/09/23 12:47:58;;;;;;;22.50;14.55;;;15.30;99.90;;;;;;5055721;28;20452;-70
2022/09/23 12:50:46;;;;;;;20.10;14.43;;;15.30;99.90;;;;;;5053482;28;20051;-70
2022/09/23 12:53:33;;;;;;;26.85;15.52;;;15.30;99.90;;;;;;5052081;28;20446;-70
2022/09/23 12:56:25;;;;;;;25.95;14.35;;;15.30;99.90;;;;;;5051633;28;20498;-69
2022/09/23 12:59:05;;;;;;;21.95;14.52;;;15.30;99.90;;;;;;5039581;28;20542;-69
2022/09/23 13:01:36;;;;;;;21.35;14.32;;;15.30;99.90;;;;;;5051913;28;20040;-70
2022/09/23 13:07:05;;;;;;;20.17;15.00;;;15.30;99.90;;;;;;5032816;28;20055;-70
2022/09/23 13:09:39;;;;;;;21.67;15.13;;;15.30;99.90;;;;;;5058201;28;20053;-70
2022/09/23 13:12:18;;;;;;;20.40;13.93;;;15.30;99.90;;;;;;5052416;28;20120;-70